createdAt,value
2019-03-29T00:00:12.106Z,6.33
2019-03-29T00:02:39.666Z,5.70
2019-03-29T00:05:07.269Z,5.83
2019-03-29T00:07:39.975Z,6.70
2019-03-29T00:10:04.337Z,5.63
2019-03-29T00:12:31.910Z,5.83
2019-03-29T00:14:59.426Z,5.73
2019-03-29T00:17:26.906Z,5.53
2019-03-29T00:19:54.645Z,5.97
2019-03-29T00:22:22.258Z,6.30
2019-03-29T00:24:49.626Z,5.47
2019-03-29T00:27:17.210Z,5.20
2019-03-29T00:29:44.701Z,5.60
2019-03-29T00:32:12.174Z,5.47
2019-03-29T00:34:39.639Z,5.17
2019-03-29T00:37:07.184Z,5.10
2019-03-29T00:39:34.748Z,5.07
2019-03-29T00:42:02.227Z,5.43
2019-03-29T00:44:29.730Z,4.80
2019-03-29T00:46:57.227Z,4.87
2019-03-29T00:49:24.605Z,5.80
2019-03-29T00:51:52.126Z,6.00
2019-03-29T00:54:19.695Z,4.90
2019-03-29T00:56:47.284Z,5.20
2019-03-29T00:59:15.160Z,5.30
2019-03-29T01:01:42.719Z,5.20
2019-03-29T01:04:10.203Z,5.20
2019-03-29T01:06:39.073Z,4.80
2019-03-29T01:09:06.857Z,4.70
2019-03-29T01:11:34.524Z,5.67
2019-03-29T01:14:02.133Z,4.63
2019-03-29T01:16:29.694Z,5.23
2019-03-29T01:18:57.282Z,4.93
2019-03-29T01:21:24.987Z,5.07
2019-03-29T01:23:52.581Z,5.40
2019-03-29T01:26:20.137Z,4.77
2019-03-29T01:28:47.680Z,4.30
2019-03-29T01:31:15.160Z,4.90
2019-03-29T01:33:42.699Z,5.07
2019-03-29T01:36:10.216Z,5.57
2019-03-29T01:38:37.662Z,5.10
2019-03-29T01:41:05.152Z,5.13
2019-03-29T01:43:32.753Z,5.80
2019-03-29T01:46:00.330Z,4.97
2019-03-29T01:48:27.818Z,5.33
2019-03-29T01:50:55.456Z,5.13
2019-03-29T01:53:23.088Z,5.83
2019-03-29T01:55:50.438Z,5.50
2019-03-29T01:58:17.960Z,5.37
2019-03-29T02:00:45.481Z,5.40
2019-03-29T02:03:13.175Z,5.53
2019-03-29T02:05:41.078Z,6.20
2019-03-29T02:08:08.642Z,5.30
2019-03-29T02:10:36.127Z,5.63
2019-03-29T02:13:03.780Z,5.53
2019-03-29T02:15:31.263Z,6.53
2019-03-29T02:17:58.721Z,6.10
2019-03-29T02:20:26.228Z,6.17
2019-03-29T02:22:53.881Z,5.97
2019-03-29T02:25:21.346Z,5.90
2019-03-29T02:27:48.998Z,6.17
2019-03-29T02:30:16.807Z,6.03
2019-03-29T02:32:44.414Z,5.63
2019-03-29T02:35:12.039Z,6.13
2019-03-29T02:37:39.572Z,6.00
2019-03-29T02:40:07.466Z,6.60
2019-03-29T02:42:34.990Z,6.53
2019-03-29T02:45:03.626Z,6.33
2019-03-29T02:47:31.453Z,7.07
2019-03-29T02:49:59.047Z,6.57
2019-03-29T02:52:26.553Z,6.47
2019-03-29T02:54:54.139Z,7.13
2019-03-29T02:57:21.647Z,7.00
2019-03-29T02:59:49.105Z,6.50
2019-03-29T03:02:16.667Z,6.83
2019-03-29T03:04:44.163Z,6.97
2019-03-29T03:07:11.732Z,7.27
2019-03-29T03:09:39.219Z,7.60
2019-03-29T03:12:07.114Z,7.63
2019-03-29T03:14:34.650Z,7.50
2019-03-29T03:17:02.243Z,7.80
2019-03-29T03:19:29.928Z,9.07
2019-03-29T03:21:57.411Z,8.80
2019-03-29T03:24:24.967Z,8.77
2019-03-29T03:26:52.475Z,8.93
2019-03-29T03:29:20.023Z,8.93
2019-03-29T03:31:47.500Z,8.73
2019-03-29T03:34:15.203Z,8.43
2019-03-29T03:36:42.608Z,9.40
2019-03-29T03:39:10.065Z,9.20
2019-03-29T03:41:37.770Z,9.87
2019-03-29T03:44:05.728Z,10.03
2019-03-29T03:46:33.211Z,10.07
2019-03-29T03:49:00.985Z,10.07
2019-03-29T03:51:28.648Z,11.23
2019-03-29T03:53:56.207Z,9.80
2019-03-29T03:56:25.255Z,10.63
2019-03-29T03:58:53.112Z,10.97
2019-03-29T04:01:20.761Z,12.27
2019-03-29T04:03:48.293Z,11.67
2019-03-29T04:06:15.755Z,12.93
2019-03-29T04:08:43.142Z,12.43
2019-03-29T04:11:10.548Z,12.17
2019-03-29T04:13:38.160Z,13.50
2019-03-29T04:16:05.749Z,13.93
2019-03-29T04:18:33.146Z,14.07
2019-03-29T04:21:00.523Z,14.93
2019-03-29T04:23:28.189Z,13.57
2019-03-29T04:25:55.709Z,13.67
2019-03-29T04:28:23.261Z,13.63
2019-03-29T04:30:50.859Z,13.23
2019-03-29T04:33:18.386Z,13.47
2019-03-29T04:35:45.966Z,14.70
2019-03-29T04:38:13.427Z,13.97
2019-03-29T04:40:41.038Z,14.03
2019-03-29T04:43:08.414Z,14.47
2019-03-29T04:45:35.977Z,14.87
2019-03-29T04:48:03.723Z,13.73
2019-03-29T04:50:31.388Z,14.53
2019-03-29T04:52:58.862Z,14.40
2019-03-29T04:55:26.474Z,14.83
2019-03-29T04:57:53.960Z,14.70
2019-03-29T05:00:21.543Z,15.47
2019-03-29T05:02:49.145Z,13.93
2019-03-29T05:05:16.626Z,14.70
2019-03-29T05:07:44.190Z,13.87
2019-03-29T05:10:21.280Z,14.00
2019-03-29T05:12:41.400Z,15.00
2019-03-29T05:15:09.432Z,14.83
2019-03-29T05:17:37.100Z,14.40
2019-03-29T05:20:04.968Z,14.90
2019-03-29T05:22:32.445Z,15.00
2019-03-29T05:25:00.713Z,15.47
2019-03-29T05:27:28.226Z,15.33
2019-03-29T05:29:55.829Z,14.23
2019-03-29T05:32:23.433Z,14.47
2019-03-29T05:34:50.897Z,15.87
2019-03-29T05:37:18.366Z,15.03
2019-03-29T05:39:45.883Z,14.83
2019-03-29T05:42:13.358Z,15.80
2019-03-29T05:44:41.058Z,15.30
2019-03-29T05:47:08.638Z,14.37
2019-03-29T05:49:36.225Z,15.47
2019-03-29T05:52:03.845Z,16.87
2019-03-29T05:54:31.356Z,16.10
2019-03-29T05:56:58.818Z,15.63
2019-03-29T05:59:26.301Z,12.63
2019-03-29T06:01:53.785Z,13.33
2019-03-29T06:04:21.850Z,12.13
2019-03-29T06:06:49.305Z,11.53
2019-03-29T06:09:17.081Z,12.03
2019-03-29T06:11:44.538Z,11.43
2019-03-29T06:14:12.109Z,11.17
2019-03-29T06:16:39.643Z,10.77
2019-03-29T06:19:07.190Z,11.17
2019-03-29T06:21:34.660Z,10.77
2019-03-29T06:24:02.192Z,10.20
2019-03-29T06:26:48.922Z,10.53
2019-03-29T06:29:16.498Z,10.30
2019-03-29T06:31:44.034Z,10.97
2019-03-29T06:34:11.934Z,10.67
2019-03-29T06:36:41.119Z,10.07
2019-03-29T06:39:09.516Z,10.27
2019-03-29T06:41:37.043Z,11.03
2019-03-29T06:44:04.651Z,11.00
2019-03-29T06:46:32.370Z,10.40
2019-03-29T06:48:59.833Z,10.50
2019-03-29T06:51:27.451Z,11.07
2019-03-29T06:53:54.809Z,11.60
2019-03-29T06:56:22.316Z,9.83
2019-03-29T06:58:49.794Z,10.27
2019-03-29T07:01:17.234Z,10.80
2019-03-29T07:03:45.055Z,10.90
2019-03-29T07:06:12.471Z,10.57
2019-03-29T07:08:40.290Z,10.17
2019-03-29T07:11:17.167Z,11.87
2019-03-29T07:13:37.951Z,10.67
2019-03-29T07:16:05.539Z,10.43
2019-03-29T07:18:33.202Z,10.70
2019-03-29T07:21:00.798Z,10.63
2019-03-29T07:23:28.448Z,10.63
2019-03-29T07:25:56.591Z,10.13
2019-03-29T07:28:24.449Z,9.73
2019-03-29T07:30:51.897Z,10.33
2019-03-29T07:33:19.403Z,9.07
2019-03-29T07:35:46.832Z,10.37
2019-03-29T07:38:14.270Z,10.03
2019-03-29T07:40:41.741Z,10.37
2019-03-29T07:43:09.253Z,9.43
2019-03-29T07:45:39.230Z,8.47
2019-03-29T07:48:08.926Z,9.23
2019-03-29T07:50:36.415Z,9.10
2019-03-29T07:53:03.888Z,8.67
2019-03-29T07:55:31.317Z,8.60
2019-03-29T07:57:58.878Z,8.57
2019-03-29T08:00:26.350Z,8.10
2019-03-29T08:02:55.185Z,7.70
2019-03-29T08:05:23.068Z,7.57
2019-03-29T08:07:50.527Z,7.60
2019-03-29T08:10:24.887Z,7.07
2019-03-29T08:12:49.248Z,7.43
2019-03-29T08:15:16.782Z,7.50
2019-03-29T08:17:44.346Z,6.63
2019-03-29T08:20:38.068Z,6.63
2019-03-29T08:22:41.272Z,5.73
2019-03-29T08:25:09.596Z,6.07
2019-03-29T08:27:37.004Z,6.30
2019-03-29T08:30:05.516Z,6.23
2019-03-29T08:32:32.981Z,5.43
2019-03-29T08:35:00.608Z,5.47
2019-03-29T08:37:28.066Z,5.37
2019-03-29T08:39:56.648Z,5.27
2019-03-29T08:42:24.359Z,5.13
2019-03-29T08:44:52.006Z,5.00
2019-03-29T08:47:19.500Z,4.83
2019-03-29T08:49:47.103Z,5.03
2019-03-29T08:52:14.661Z,5.00
2019-03-29T08:54:42.162Z,4.73
2019-03-29T08:57:10.700Z,4.30
2019-03-29T08:59:38.429Z,4.50
2019-03-29T09:02:06.225Z,4.40
2019-03-29T09:04:33.843Z,4.00
2019-03-29T09:07:01.483Z,4.30
2019-03-29T09:09:29.010Z,4.17
2019-03-29T09:11:56.436Z,3.83
2019-03-29T09:14:23.918Z,3.90
2019-03-29T09:16:51.373Z,3.97
2019-03-29T09:19:18.877Z,3.93
2019-03-29T09:21:46.328Z,4.77
2019-03-29T09:24:21.632Z,4.27
2019-03-29T09:26:43.207Z,3.60
2019-03-29T09:29:10.702Z,3.83
2019-03-29T09:31:38.898Z,3.90
2019-03-29T09:34:06.414Z,3.77
2019-03-29T09:36:33.985Z,3.93
2019-03-29T09:39:01.623Z,3.70
2019-03-29T09:41:29.233Z,4.10
2019-03-29T09:43:56.597Z,3.87
2019-03-29T09:46:24.179Z,4.10
2019-03-29T09:48:51.677Z,3.90
2019-03-29T09:51:19.235Z,4.13
2019-03-29T09:53:46.706Z,4.23
2019-03-29T09:56:14.401Z,3.83
2019-03-29T09:58:44.957Z,4.00
2019-03-29T10:01:11.385Z,4.00
2019-03-29T10:03:39.092Z,3.80
2019-03-29T10:06:06.549Z,3.87
2019-03-29T10:08:34.144Z,3.80
2019-03-29T10:11:01.561Z,4.07
2019-03-29T10:13:29.309Z,4.27
2019-03-29T10:15:56.875Z,4.00
2019-03-29T10:18:24.399Z,4.10
2019-03-29T10:20:51.878Z,4.13
2019-03-29T10:23:19.253Z,4.10
2019-03-29T10:25:46.759Z,5.07
2019-03-29T10:28:14.215Z,5.17
2019-03-29T10:30:46.475Z,4.70
2019-03-29T10:33:12.861Z,4.50
2019-03-29T10:35:51.434Z,5.10
2019-03-29T10:38:09.898Z,5.17
2019-03-29T10:40:37.509Z,5.23
2019-03-29T10:43:05.219Z,5.70
2019-03-29T10:45:37.999Z,5.00
2019-03-29T10:48:02.448Z,5.50
2019-03-29T10:50:30.049Z,5.33
2019-03-29T10:52:57.686Z,6.20
2019-03-29T10:55:25.307Z,6.27
2019-03-29T10:57:52.770Z,6.57
2019-03-29T11:00:37.249Z,6.40
2019-03-29T11:03:05.405Z,6.57
2019-03-29T11:05:32.974Z,7.30
2019-03-29T11:08:00.497Z,7.53
2019-03-29T11:10:32.278Z,8.07
2019-03-29T11:13:11.707Z,7.53
2019-03-29T11:15:29.593Z,8.30
2019-03-29T11:17:57.127Z,8.20
2019-03-29T11:20:24.700Z,8.50
2019-03-29T11:22:52.202Z,9.10
2019-03-29T11:25:19.771Z,9.07
2019-03-29T11:27:47.142Z,9.03
2019-03-29T11:30:14.730Z,9.13
2019-03-29T11:32:42.386Z,9.27
2019-03-29T11:35:09.953Z,8.03
2019-03-29T11:37:37.461Z,8.03
2019-03-29T11:40:05.413Z,9.23
2019-03-29T11:42:33.063Z,9.60
2019-03-29T11:45:00.655Z,9.23
2019-03-29T11:47:28.234Z,9.90
2019-03-29T11:49:55.714Z,10.33
2019-03-29T11:52:23.321Z,10.10
2019-03-29T11:54:50.771Z,9.70
2019-03-29T11:57:18.142Z,10.27
2019-03-29T11:59:45.765Z,10.90
2019-03-29T12:02:13.313Z,11.67
2019-03-29T12:04:40.902Z,10.77
2019-03-29T12:07:08.398Z,10.77
2019-03-29T12:09:35.849Z,11.77
2019-03-29T12:12:03.457Z,11.50
2019-03-29T12:14:31.067Z,11.43
2019-03-29T12:16:58.860Z,11.50
2019-03-29T12:19:26.319Z,10.60
2019-03-29T12:21:53.929Z,11.27
2019-03-29T12:24:21.421Z,11.07
2019-03-29T12:26:48.990Z,11.13
2019-03-29T12:29:16.577Z,11.33
2019-03-29T12:31:44.130Z,10.87
2019-03-29T12:34:11.813Z,12.07
2019-03-29T12:36:39.413Z,11.53
2019-03-29T12:39:06.979Z,11.73
2019-03-29T12:41:34.346Z,12.57
2019-03-29T12:44:01.854Z,11.67
2019-03-29T12:46:32.163Z,11.97
2019-03-29T12:48:58.744Z,11.27
2019-03-29T12:51:26.330Z,11.30
2019-03-29T12:53:53.907Z,11.47
2019-03-29T12:56:21.480Z,11.33
2019-03-29T12:58:48.873Z,11.03
2019-03-29T13:01:16.472Z,10.83
2019-03-29T13:03:44.186Z,11.60
2019-03-29T13:06:11.834Z,11.27
2019-03-29T13:08:39.498Z,12.37
2019-03-29T13:11:07.071Z,11.10
2019-03-29T13:13:34.718Z,11.17
2019-03-29T13:16:02.289Z,11.20
2019-03-29T13:18:29.770Z,11.60
2019-03-29T13:20:57.538Z,11.07
2019-03-29T13:23:24.902Z,10.93
2019-03-29T13:25:52.468Z,11.43
2019-03-29T13:28:19.962Z,11.73
2019-03-29T13:30:47.640Z,12.37
2019-03-29T13:33:15.358Z,11.93
2019-03-29T13:35:44.547Z,12.73
2019-03-29T13:38:12.262Z,12.23
2019-03-29T13:40:39.946Z,11.83
2019-03-29T13:43:07.446Z,12.03
2019-03-29T13:45:34.908Z,11.90
2019-03-29T13:48:02.575Z,12.07
2019-03-29T13:50:30.172Z,13.07
2019-03-29T13:52:57.731Z,13.13
2019-03-29T13:55:25.324Z,12.37
2019-03-29T13:57:52.852Z,12.43
2019-03-29T14:00:20.551Z,11.63
2019-03-29T14:02:48.018Z,11.77
2019-03-29T14:05:15.691Z,11.37
2019-03-29T14:07:43.073Z,11.60
2019-03-29T14:10:11.303Z,11.53
2019-03-29T14:12:39.140Z,11.70
2019-03-29T14:15:08.407Z,12.07
2019-03-29T14:17:35.918Z,12.27
2019-03-29T14:20:03.947Z,12.17
2019-03-29T14:22:31.314Z,11.23
2019-03-29T14:24:58.854Z,11.17
2019-03-29T14:27:26.274Z,10.80
2019-03-29T14:30:04.059Z,11.60
2019-03-29T14:32:23.594Z,11.40
2019-03-29T14:34:51.574Z,10.87
2019-03-29T14:37:19.038Z,11.33
2019-03-29T14:39:46.949Z,11.57
2019-03-29T14:42:14.438Z,11.40
2019-03-29T14:44:52.244Z,11.40
2019-03-29T14:47:11.430Z,11.37
2019-03-29T14:49:38.938Z,11.23
2019-03-29T14:52:06.310Z,11.17
2019-03-29T14:54:33.658Z,11.30
2019-03-29T14:57:01.150Z,11.07
2019-03-29T14:59:28.702Z,11.67
2019-03-29T15:01:56.275Z,11.87
2019-03-29T15:04:23.884Z,10.63
2019-03-29T15:06:51.422Z,11.50
2019-03-29T15:09:19.880Z,10.97
2019-03-29T15:11:47.637Z,10.70
2019-03-29T15:14:15.105Z,11.27
2019-03-29T15:16:42.465Z,11.13
2019-03-29T15:19:10.186Z,10.57
2019-03-29T15:21:37.727Z,11.73
2019-03-29T15:24:05.166Z,11.23
2019-03-29T15:26:32.557Z,11.93
2019-03-29T15:29:00.025Z,12.37
2019-03-29T15:31:27.477Z,11.50
2019-03-29T15:33:55.782Z,11.27
2019-03-29T15:36:23.415Z,12.00
2019-03-29T15:38:50.982Z,11.47
2019-03-29T15:41:18.441Z,10.83
2019-03-29T15:43:45.903Z,11.03
2019-03-29T15:46:13.496Z,11.20
2019-03-29T15:48:40.990Z,11.67
2019-03-29T15:51:08.350Z,11.67
2019-03-29T15:53:35.710Z,11.40
2019-03-29T15:56:03.290Z,11.10
2019-03-29T15:58:30.769Z,12.07
2019-03-29T16:00:58.331Z,12.03
2019-03-29T16:03:25.827Z,11.80
2019-03-29T16:05:53.278Z,11.47
2019-03-29T16:08:20.736Z,11.80
2019-03-29T16:10:48.147Z,11.60
2019-03-29T16:13:18.279Z,11.93
2019-03-29T16:15:45.811Z,10.83
2019-03-29T16:18:13.329Z,11.50
2019-03-29T16:20:40.893Z,10.77
2019-03-29T16:23:09.266Z,11.37
2019-03-29T16:25:36.858Z,11.57
2019-03-29T16:28:04.323Z,11.37
2019-03-29T16:30:31.917Z,12.23
2019-03-29T16:32:59.433Z,10.70
2019-03-29T16:35:26.997Z,11.00
2019-03-29T16:37:57.295Z,11.13
2019-03-29T16:40:23.962Z,11.70
2019-03-29T16:42:51.548Z,11.27
2019-03-29T16:45:19.149Z,12.10
2019-03-29T16:47:46.678Z,11.43
2019-03-29T16:50:14.218Z,10.77
2019-03-29T16:52:41.781Z,11.60
2019-03-29T16:55:13.588Z,11.03
2019-03-29T16:57:40.766Z,10.73
2019-03-29T17:00:12.164Z,11.07
2019-03-29T17:02:38.988Z,11.73
2019-03-29T17:05:07.478Z,12.13
2019-03-29T17:07:34.862Z,12.70
2019-03-29T17:10:02.987Z,12.03
2019-03-29T17:12:30.753Z,11.20
2019-03-29T17:14:58.829Z,12.17
2019-03-29T17:17:26.369Z,11.43
2019-03-29T17:19:53.759Z,12.17
2019-03-29T17:22:21.328Z,11.53
2019-03-29T17:24:56.760Z,12.30
2019-03-29T17:27:18.153Z,12.93
2019-03-29T17:29:45.702Z,12.20
2019-03-29T17:32:13.293Z,12.43
2019-03-29T17:34:40.806Z,12.93
2019-03-29T17:37:08.241Z,12.17
2019-03-29T17:39:35.737Z,12.20
2019-03-29T17:42:03.383Z,12.83
2019-03-29T17:44:31.048Z,12.40
2019-03-29T17:46:58.597Z,12.83
2019-03-29T17:49:25.927Z,13.13
2019-03-29T17:51:53.373Z,13.20
2019-03-29T17:54:20.852Z,12.73
2019-03-29T17:56:48.320Z,13.23
2019-03-29T17:59:15.793Z,13.20
2019-03-29T18:01:43.187Z,13.27
2019-03-29T18:04:10.632Z,14.77
2019-03-29T18:06:38.068Z,13.97
2019-03-29T18:09:06.533Z,14.97
2019-03-29T18:11:33.966Z,14.43
2019-03-29T18:14:01.336Z,15.43
2019-03-29T18:16:30.825Z,17.37
2019-03-29T18:18:58.189Z,17.50
2019-03-29T18:21:25.637Z,21.57
2019-03-29T18:23:53.122Z,22.03
2019-03-29T18:26:20.669Z,20.87
2019-03-29T18:28:48.107Z,22.60
2019-03-29T18:31:15.794Z,21.60
2019-03-29T18:33:43.745Z,21.87
2019-03-29T18:36:11.370Z,22.33
2019-03-29T18:38:39.582Z,21.17
2019-03-29T18:41:07.051Z,23.40
2019-03-29T18:43:34.381Z,21.93
2019-03-29T18:46:01.987Z,23.30
2019-03-29T18:48:29.425Z,21.80
2019-03-29T18:50:56.764Z,22.87
2019-03-29T18:53:24.358Z,23.60
2019-03-29T18:55:51.819Z,23.97
2019-03-29T18:58:19.364Z,22.30
2019-03-29T19:00:47.150Z,22.53
2019-03-29T19:03:14.854Z,23.50
2019-03-29T19:05:42.297Z,24.80
2019-03-29T19:08:09.682Z,23.43
2019-03-29T19:10:37.156Z,24.50
2019-03-29T19:13:04.494Z,23.00
2019-03-29T19:15:31.979Z,23.93
2019-03-29T19:17:59.352Z,22.83
2019-03-29T19:20:28.241Z,26.60
2019-03-29T19:22:55.997Z,25.17
2019-03-29T19:25:23.463Z,23.93
2019-03-29T19:27:50.896Z,25.00
2019-03-29T19:30:18.878Z,24.57
2019-03-29T19:32:46.326Z,25.23
2019-03-29T19:35:13.899Z,24.37
2019-03-29T19:37:41.593Z,25.50
2019-03-29T19:40:10.347Z,24.77
2019-03-29T19:42:37.969Z,23.67
2019-03-29T19:45:07.574Z,23.53
2019-03-29T19:47:35.167Z,22.93
2019-03-29T19:50:03.794Z,24.47
2019-03-29T19:52:31.157Z,23.60
2019-03-29T19:55:01.299Z,23.40
2019-03-29T19:57:28.007Z,22.87
2019-03-29T19:59:55.636Z,21.97
2019-03-29T20:02:23.072Z,23.87
2019-03-29T20:04:50.426Z,22.87
2019-03-29T20:07:20.376Z,24.07
2019-03-29T20:09:47.411Z,24.37
2019-03-29T20:12:15.004Z,22.93
2019-03-29T20:14:42.481Z,22.07
2019-03-29T20:17:10.031Z,22.50
2019-03-29T20:19:37.375Z,23.23
2019-03-29T20:22:04.850Z,21.40
2019-03-29T20:24:32.402Z,23.47
2019-03-29T20:26:59.833Z,22.13
2019-03-29T20:29:27.421Z,22.33
2019-03-29T20:31:54.762Z,22.50
2019-03-29T20:34:22.205Z,21.00
2019-03-29T20:36:49.685Z,23.23
2019-03-29T20:39:17.038Z,22.43
2019-03-29T20:41:44.383Z,23.00
2019-03-29T20:44:11.874Z,23.43
2019-03-29T20:46:39.198Z,22.07
2019-03-29T20:49:06.654Z,22.60
2019-03-29T20:51:34.114Z,21.77
2019-03-29T20:54:01.545Z,22.33
2019-03-29T20:56:29.047Z,21.80
2019-03-29T20:58:56.613Z,21.80
2019-03-29T21:01:24.769Z,20.07
2019-03-29T21:03:52.324Z,21.13
2019-03-29T21:06:19.789Z,21.17
2019-03-29T21:08:47.141Z,19.70
2019-03-29T21:11:14.622Z,19.50
2019-03-29T21:13:42.161Z,19.93
2019-03-29T21:16:09.777Z,19.50
2019-03-29T21:18:37.215Z,19.40
2019-03-29T21:21:04.806Z,19.90
2019-03-29T21:23:32.162Z,19.13
2019-03-29T21:25:59.516Z,19.00
2019-03-29T21:28:27.017Z,18.80
2019-03-29T21:30:54.365Z,18.53
2019-03-29T21:33:21.802Z,19.23
2019-03-29T21:35:49.156Z,18.00
2019-03-29T21:38:16.501Z,17.40
2019-03-29T21:40:44.038Z,17.23
2019-03-29T21:43:11.530Z,17.93
2019-03-29T21:45:38.989Z,18.27
2019-03-29T21:48:27.269Z,18.10
2019-03-29T21:50:35.728Z,18.93
2019-03-29T21:53:03.175Z,16.90
2019-03-29T21:55:30.624Z,16.40
2019-03-29T21:57:58.114Z,16.93
2019-03-29T22:00:25.666Z,17.33
2019-03-29T22:02:53.139Z,16.47
2019-03-29T22:05:20.834Z,16.33
2019-03-29T22:07:48.370Z,15.10
2019-03-29T22:10:15.832Z,16.37
2019-03-29T22:12:43.505Z,16.37
2019-03-29T22:15:12.060Z,16.17
2019-03-29T22:17:39.496Z,17.00
2019-03-29T22:20:08.749Z,15.33
2019-03-29T22:22:36.357Z,15.67
2019-03-29T22:25:04.774Z,16.20
2019-03-29T22:27:32.186Z,14.93
2019-03-29T22:29:59.573Z,15.33
2019-03-29T22:32:27.030Z,16.47
2019-03-29T22:34:54.516Z,14.10
2019-03-29T22:37:21.902Z,15.33
2019-03-29T22:39:49.345Z,14.07
2019-03-29T22:42:16.855Z,15.10
2019-03-29T22:44:44.338Z,14.97
2019-03-29T22:47:12.024Z,15.13
2019-03-29T22:49:39.831Z,15.23
2019-03-29T22:52:07.264Z,14.57
2019-03-29T22:54:34.902Z,14.43
2019-03-29T22:57:02.485Z,16.90
2019-03-29T22:59:29.963Z,15.03
2019-03-29T23:01:57.714Z,15.03
2019-03-29T23:04:25.219Z,15.50
2019-03-29T23:06:52.697Z,14.37
2019-03-29T23:09:20.045Z,15.63
2019-03-29T23:11:47.672Z,15.97
2019-03-29T23:14:15.225Z,16.20
2019-03-29T23:16:42.685Z,16.30
2019-03-29T23:19:10.174Z,15.83
2019-03-29T23:21:37.666Z,16.37
2019-03-29T23:24:05.114Z,15.80
2019-03-29T23:26:32.478Z,16.23
2019-03-29T23:28:59.906Z,15.60
2019-03-29T23:31:27.341Z,16.33
2019-03-29T23:33:54.887Z,14.87
2019-03-29T23:36:24.953Z,16.27
2019-03-29T23:38:52.458Z,16.03
2019-03-29T23:41:19.856Z,16.53
2019-03-29T23:43:47.246Z,16.50
2019-03-29T23:46:14.645Z,15.93
2019-03-29T23:48:42.024Z,15.33
2019-03-29T23:51:09.465Z,15.73
2019-03-29T23:53:36.836Z,14.77
2019-03-29T23:56:04.421Z,15.37
2019-03-29T23:58:31.863Z,16.37
